createdAt,value
2022-07-26T00:00:51.468Z,1.50
2022-07-26T00:03:38.692Z,1.65
2022-07-26T00:06:25.952Z,1.80
2022-07-26T00:09:13.330Z,1.90
2022-07-26T00:12:03.134Z,1.60
2022-07-26T00:14:50.765Z,1.67
2022-07-26T00:17:39.750Z,2.17
2022-07-26T00:20:29.290Z,1.85
2022-07-26T00:23:16.743Z,1.58
2022-07-26T00:26:03.855Z,1.55
2022-07-26T00:28:53.991Z,2.10
2022-07-26T00:31:41.192Z,2.10
2022-07-26T00:34:28.374Z,1.80
2022-07-26T00:37:20.099Z,1.88
2022-07-26T00:40:08.992Z,1.90
2022-07-26T00:42:56.490Z,1.63
2022-07-26T00:45:43.988Z,2.15
2022-07-26T00:48:31.221Z,1.70
2022-07-26T00:51:18.858Z,1.38
2022-07-26T00:54:07.008Z,1.52
2022-07-26T00:56:55.341Z,1.50
2022-07-26T00:59:43.613Z,1.45
2022-07-26T01:02:30.776Z,1.27
2022-07-26T01:05:22.581Z,1.80
2022-07-26T01:08:09.875Z,1.47
2022-07-26T01:10:59.568Z,1.20
2022-07-26T01:13:51.222Z,1.50
2022-07-26T01:16:38.520Z,1.20
2022-07-26T01:19:25.688Z,1.50
2022-07-26T01:22:14.819Z,1.58
2022-07-26T01:25:02.239Z,1.25
2022-07-26T01:27:49.373Z,1.30
2022-07-26T01:30:36.706Z,1.50
2022-07-26T01:33:28.029Z,1.20
2022-07-26T01:36:15.257Z,1.42
2022-07-26T01:39:04.731Z,1.40
2022-07-26T01:41:56.932Z,1.20
2022-07-26T01:44:44.126Z,1.08
2022-07-26T01:47:31.288Z,1.02
2022-07-26T01:50:18.718Z,1.10
2022-07-26T01:53:06.101Z,1.25
2022-07-26T01:55:53.715Z,1.13
2022-07-26T01:58:45.530Z,1.15
2022-07-26T02:01:38.000Z,1.30
2022-07-26T02:04:44.165Z,1.02
2022-07-26T02:07:37.234Z,1.38
2022-07-26T02:10:47.554Z,1.30
2022-07-26T02:13:41.763Z,1.25
2022-07-26T02:16:29.015Z,1.20
2022-07-26T02:19:16.146Z,1.20
2022-07-26T02:22:05.846Z,0.95
2022-07-26T02:24:53.426Z,1.20
2022-07-26T02:27:40.577Z,1.58
2022-07-26T02:30:28.230Z,1.30
2022-07-26T02:33:16.798Z,1.02
2022-07-26T02:36:04.282Z,1.00
2022-07-26T02:38:53.684Z,1.33
2022-07-26T02:41:41.592Z,1.00
2022-07-26T02:44:29.446Z,1.17
2022-07-26T02:47:16.586Z,1.33
2022-07-26T02:50:07.012Z,1.20
2022-07-26T02:52:54.548Z,1.27
2022-07-26T02:55:42.031Z,1.10
2022-07-26T02:58:29.198Z,1.10
2022-07-26T03:01:16.404Z,1.55
2022-07-26T03:04:03.721Z,1.02
2022-07-26T03:06:50.983Z,1.15
2022-07-26T03:09:38.148Z,1.10
2022-07-26T03:12:27.491Z,1.33
2022-07-26T03:15:14.741Z,1.23
2022-07-26T03:18:02.055Z,1.13
2022-07-26T03:20:49.997Z,1.30
2022-07-26T03:23:37.407Z,1.90
2022-07-26T03:26:24.539Z,1.40
2022-07-26T03:29:11.725Z,1.70
2022-07-26T03:31:58.889Z,1.65
2022-07-26T03:34:46.039Z,1.20
2022-07-26T03:37:45.663Z,1.45
2022-07-26T03:40:33.562Z,1.45
2022-07-26T03:43:23.301Z,1.65
2022-07-26T03:46:11.135Z,1.33
2022-07-26T03:48:58.481Z,1.65
2022-07-26T03:51:46.219Z,1.55
2022-07-26T03:54:33.493Z,1.60
2022-07-26T03:57:20.622Z,1.40
2022-07-26T04:00:11.486Z,1.60
2022-07-26T04:06:00.540Z,1.70
2022-07-26T04:08:52.182Z,2.10
2022-07-26T04:11:40.290Z,1.90
2022-07-26T04:14:29.785Z,1.67
2022-07-26T04:17:17.042Z,1.80
2022-07-26T04:20:05.601Z,2.00
2022-07-26T04:22:52.862Z,2.55
2022-07-26T04:25:41.430Z,2.30
2022-07-26T04:28:29.141Z,2.22
2022-07-26T04:31:16.834Z,2.33
2022-07-26T04:34:04.391Z,2.15
2022-07-26T04:36:52.594Z,1.63
2022-07-26T04:39:42.591Z,1.75
2022-07-26T04:42:29.679Z,1.83
2022-07-26T04:45:16.847Z,2.20
2022-07-26T04:48:04.470Z,2.22
2022-07-26T04:50:54.312Z,1.95
2022-07-26T04:53:41.449Z,2.60
2022-07-26T04:56:31.173Z,2.22
2022-07-26T04:59:22.063Z,2.38
2022-07-26T05:02:09.711Z,2.28
2022-07-26T05:04:56.842Z,1.92
2022-07-26T05:07:46.676Z,2.35
2022-07-26T05:10:37.851Z,2.10
2022-07-26T05:13:29.942Z,2.28
2022-07-26T05:16:18.057Z,2.22
2022-07-26T05:19:08.637Z,2.42
2022-07-26T05:21:55.932Z,2.08
2022-07-26T05:24:43.095Z,2.33
2022-07-26T05:27:30.241Z,2.50
2022-07-26T05:30:17.443Z,2.28
2022-07-26T05:33:04.788Z,2.33
2022-07-26T05:35:54.186Z,2.88
2022-07-26T05:38:41.340Z,2.88
2022-07-26T05:41:28.480Z,2.38
2022-07-26T05:44:15.649Z,2.45
2022-07-26T05:47:02.942Z,2.47
2022-07-26T05:49:50.095Z,2.55
2022-07-26T05:52:39.385Z,2.50
2022-07-26T05:55:26.637Z,2.55
2022-07-26T05:58:13.907Z,2.92
2022-07-26T06:01:01.065Z,3.15
2022-07-26T06:03:48.362Z,2.58
2022-07-26T06:06:38.050Z,3.03
2022-07-26T06:09:25.478Z,2.70
2022-07-26T06:12:12.692Z,2.53
2022-07-26T06:14:59.800Z,2.50
2022-07-26T06:17:49.987Z,2.30
2022-07-26T06:20:42.150Z,2.30
2022-07-26T06:23:33.965Z,2.35
2022-07-26T06:29:10.881Z,2.50
2022-07-26T06:31:58.071Z,2.10
2022-07-26T06:34:45.283Z,2.63
2022-07-26T06:37:32.637Z,2.25
2022-07-26T06:40:19.784Z,1.90
2022-07-26T06:43:09.029Z,2.30
2022-07-26T06:45:56.303Z,2.25
2022-07-26T06:48:47.655Z,1.92
2022-07-26T06:51:40.069Z,1.98
2022-07-26T06:54:27.355Z,1.50
2022-07-26T06:57:14.711Z,1.73
2022-07-26T07:00:04.300Z,1.40
2022-07-26T07:02:52.773Z,1.70
2022-07-26T07:05:50.042Z,1.48
2022-07-26T07:08:37.525Z,1.20
2022-07-26T07:11:28.949Z,1.55
2022-07-26T07:14:17.079Z,1.40
2022-07-26T07:17:12.066Z,1.40
2022-07-26T07:20:01.384Z,1.30
2022-07-26T07:22:50.885Z,1.10
2022-07-26T07:25:40.345Z,1.10
2022-07-26T07:28:27.628Z,1.30
2022-07-26T07:31:14.853Z,1.10
2022-07-26T07:34:02.111Z,1.13
2022-07-26T07:36:51.818Z,0.90
2022-07-26T07:39:39.077Z,1.27
2022-07-26T07:42:28.534Z,0.93
2022-07-26T07:45:17.929Z,1.50
2022-07-26T07:48:05.495Z,1.15
2022-07-26T07:50:55.126Z,0.80
2022-07-26T07:53:42.290Z,1.05
2022-07-26T07:56:29.728Z,1.05
2022-07-26T07:59:17.355Z,0.90
2022-07-26T08:02:06.668Z,1.00
2022-07-26T08:04:57.789Z,1.02
2022-07-26T08:07:49.780Z,1.10
2022-07-26T08:10:41.848Z,1.40
2022-07-26T08:13:42.380Z,0.98
2022-07-26T08:16:34.114Z,1.50
2022-07-26T08:19:21.822Z,1.15
2022-07-26T08:22:11.179Z,1.00
2022-07-26T08:24:59.669Z,0.85
2022-07-26T08:28:02.656Z,1.00
2022-07-26T08:30:53.180Z,1.23
2022-07-26T08:33:42.889Z,1.30
2022-07-26T08:36:33.941Z,0.80
2022-07-26T08:39:21.242Z,0.88
2022-07-26T08:42:16.664Z,0.95
2022-07-26T08:45:07.569Z,1.10
2022-07-26T08:48:16.675Z,0.90
2022-07-26T08:51:12.937Z,0.90
2022-07-26T08:54:05.817Z,1.20
2022-07-26T08:56:58.661Z,1.17
2022-07-26T09:00:19.213Z,1.15
2022-07-26T09:03:07.088Z,0.80
2022-07-26T09:06:00.722Z,1.13
2022-07-26T09:08:53.200Z,1.00
2022-07-26T09:14:37.484Z,1.00
2022-07-26T09:17:38.021Z,1.20
2022-07-26T09:20:32.356Z,1.10
2022-07-26T09:23:19.674Z,1.00
2022-07-26T09:26:09.223Z,0.70
2022-07-26T09:29:11.385Z,0.90
2022-07-26T09:32:19.847Z,0.77
2022-07-26T09:35:50.018Z,1.10
2022-07-26T09:38:25.059Z,0.93
2022-07-26T09:41:36.967Z,0.80
2022-07-26T09:44:26.352Z,0.90
2022-07-26T09:47:16.166Z,0.90
2022-07-26T09:50:13.629Z,0.90
2022-07-26T09:53:08.598Z,1.00
2022-07-26T09:55:57.279Z,0.82
2022-07-26T09:58:45.282Z,0.70
2022-07-26T10:01:32.453Z,0.80
2022-07-26T10:04:20.910Z,1.08
2022-07-26T10:07:09.603Z,0.80
2022-07-26T10:10:07.199Z,0.73
2022-07-26T10:12:55.244Z,1.02
2022-07-26T10:15:47.788Z,0.77
2022-07-26T10:18:39.275Z,1.25
2022-07-26T10:24:27.205Z,0.60
2022-07-26T10:27:43.183Z,0.70
2022-07-26T10:30:35.264Z,0.93
2022-07-26T10:33:26.353Z,0.80
2022-07-26T10:36:34.554Z,0.73
2022-07-26T10:39:24.078Z,0.98
2022-07-26T10:42:13.999Z,0.50
2022-07-26T10:45:18.374Z,0.93
2022-07-26T10:48:17.211Z,0.50
2022-07-26T10:51:25.991Z,0.43
2022-07-26T10:54:14.934Z,1.00
2022-07-26T10:57:02.576Z,0.80
2022-07-26T10:59:57.650Z,1.48
2022-07-26T11:02:50.213Z,0.52
2022-07-26T11:05:38.620Z,0.85
2022-07-26T11:08:30.527Z,0.60
2022-07-26T11:11:31.783Z,0.63
2022-07-26T11:14:23.638Z,0.82
2022-07-26T11:17:32.830Z,0.60
2022-07-26T11:20:29.593Z,0.88
2022-07-26T11:23:29.082Z,0.80
2022-07-26T11:26:18.113Z,0.90
2022-07-26T11:29:06.726Z,0.65
2022-07-26T11:31:59.046Z,0.77
2022-07-26T11:35:04.277Z,0.80
2022-07-26T11:38:11.278Z,1.17
2022-07-26T11:40:59.603Z,0.73
2022-07-26T11:43:47.162Z,0.57
2022-07-26T11:46:38.068Z,0.80
2022-07-26T11:52:38.236Z,0.80
2022-07-26T11:55:27.760Z,0.80
2022-07-26T11:58:17.344Z,0.80
2022-07-26T12:01:04.665Z,0.60
2022-07-26T12:03:56.582Z,0.68
2022-07-26T12:06:45.540Z,0.65
2022-07-26T12:09:42.470Z,0.60
2022-07-26T12:12:33.224Z,0.70
2022-07-26T12:15:20.470Z,0.80
2022-07-26T12:18:10.506Z,0.50
2022-07-26T12:21:06.289Z,0.60
2022-07-26T12:23:56.958Z,0.60
2022-07-26T12:26:44.207Z,0.47
2022-07-26T12:29:36.404Z,0.60
2022-07-26T12:32:34.522Z,0.60
2022-07-26T12:35:35.930Z,0.65
2022-07-26T12:38:43.684Z,0.77
2022-07-26T12:41:34.168Z,0.45
2022-07-26T12:44:23.091Z,0.70
2022-07-26T12:47:12.700Z,0.50
2022-07-26T12:50:00.613Z,0.52
2022-07-26T12:52:48.388Z,0.65
2022-07-26T12:55:37.356Z,0.77
2022-07-26T12:58:24.556Z,0.60
2022-07-26T13:01:12.014Z,0.50
2022-07-26T13:04:02.652Z,0.50
2022-07-26T13:06:52.595Z,1.40
2022-07-26T13:09:40.209Z,1.00
2022-07-26T13:12:27.516Z,0.57
2022-07-26T13:15:14.705Z,0.60
2022-07-26T13:18:02.121Z,0.75
2022-07-26T13:20:50.451Z,0.60
2022-07-26T13:23:44.528Z,0.70
2022-07-26T13:26:33.004Z,0.50
2022-07-26T13:29:25.148Z,0.50
2022-07-26T13:32:14.832Z,0.40
2022-07-26T13:35:02.113Z,0.40
2022-07-26T13:37:49.340Z,0.55
2022-07-26T13:40:36.610Z,0.60
2022-07-26T13:43:26.494Z,0.50
2022-07-26T13:46:14.044Z,0.40
2022-07-26T13:49:03.883Z,0.68
2022-07-26T13:51:59.630Z,0.50
2022-07-26T13:54:46.875Z,0.70
2022-07-26T13:57:49.642Z,0.70
2022-07-26T14:00:44.108Z,0.80
2022-07-26T14:03:35.342Z,0.70
2022-07-26T14:06:23.494Z,0.50
2022-07-26T14:09:14.512Z,0.63
2022-07-26T14:12:01.675Z,0.40
2022-07-26T14:14:48.871Z,0.77
2022-07-26T14:17:39.873Z,0.60
2022-07-26T14:20:27.425Z,0.60
2022-07-26T14:23:14.836Z,0.47
2022-07-26T14:26:04.675Z,0.70
2022-07-26T14:28:52.564Z,0.40
2022-07-26T14:31:40.048Z,0.50
2022-07-26T14:34:29.460Z,0.50
2022-07-26T14:37:42.566Z,0.57
2022-07-26T14:40:25.827Z,0.90
2022-07-26T14:43:15.064Z,0.60
2022-07-26T14:46:05.422Z,0.55
2022-07-26T14:48:55.290Z,0.60
2022-07-26T14:51:42.805Z,0.50
2022-07-26T14:54:29.972Z,0.60
2022-07-26T14:57:17.207Z,0.57
2022-07-26T15:00:06.000Z,0.60
2022-07-26T15:02:53.225Z,0.50
2022-07-26T15:05:40.702Z,0.47
2022-07-26T15:08:27.930Z,0.50
2022-07-26T15:11:15.923Z,0.60
2022-07-26T15:14:06.062Z,0.82
2022-07-26T15:16:54.233Z,0.77
2022-07-26T15:19:41.699Z,0.70
2022-07-26T15:22:29.252Z,0.40
2022-07-26T15:25:17.306Z,0.60
2022-07-26T15:28:04.835Z,0.60
2022-07-26T15:30:53.377Z,0.57
2022-07-26T15:33:43.266Z,1.05
2022-07-26T15:36:30.608Z,0.70
2022-07-26T15:39:18.431Z,0.60
2022-07-26T15:42:07.529Z,0.60
2022-07-26T15:44:56.456Z,0.47
2022-07-26T15:47:57.381Z,0.52
2022-07-26T15:50:50.078Z,0.60
2022-07-26T15:53:41.857Z,0.50
2022-07-26T15:56:33.085Z,0.50
2022-07-26T15:59:24.817Z,0.75
2022-07-26T16:02:12.169Z,0.60
2022-07-26T16:04:59.410Z,0.65
2022-07-26T16:07:50.200Z,0.73
2022-07-26T16:10:37.400Z,0.50
2022-07-26T16:13:24.626Z,0.80
2022-07-26T16:16:12.436Z,1.27
2022-07-26T16:18:59.952Z,0.65
2022-07-26T16:21:47.271Z,0.85
2022-07-26T16:24:34.463Z,0.73
2022-07-26T16:27:21.681Z,0.70
2022-07-26T16:30:12.330Z,0.88
2022-07-26T16:33:00.031Z,0.80
2022-07-26T16:35:47.309Z,0.75
2022-07-26T16:38:34.492Z,1.25
2022-07-26T16:41:21.652Z,0.80
2022-07-26T16:44:11.375Z,0.80
2022-07-26T16:46:58.698Z,0.65
2022-07-26T16:49:46.379Z,0.70
2022-07-26T16:52:49.089Z,0.73
2022-07-26T16:55:38.448Z,0.95
2022-07-26T16:58:28.283Z,0.98
2022-07-26T17:01:16.119Z,0.80
2022-07-26T17:04:05.819Z,0.82
2022-07-26T17:07:22.378Z,0.60
2022-07-26T17:10:00.866Z,0.70
2022-07-26T17:12:48.143Z,0.57
2022-07-26T17:15:37.641Z,0.80
2022-07-26T17:18:26.193Z,0.63
2022-07-26T17:21:13.871Z,0.80
2022-07-26T17:24:25.162Z,0.70
2022-07-26T17:27:15.089Z,0.70
2022-07-26T17:30:07.507Z,0.70
2022-07-26T17:35:42.252Z,0.88
2022-07-26T17:38:29.765Z,0.90
2022-07-26T17:41:21.277Z,0.98
2022-07-26T17:44:09.694Z,0.75
2022-07-26T17:47:01.172Z,1.05
2022-07-26T17:49:48.452Z,0.80
2022-07-26T17:52:37.949Z,0.80
2022-07-26T17:55:27.703Z,0.75
2022-07-26T17:58:17.581Z,1.10
2022-07-26T18:01:05.144Z,0.90
2022-07-26T18:03:52.676Z,0.68
2022-07-26T18:06:40.445Z,0.80
2022-07-26T18:09:27.720Z,0.85
2022-07-26T18:19:08.462Z,0.85
2022-07-26T18:21:55.858Z,0.90
2022-07-26T18:24:43.185Z,0.80
2022-07-26T18:27:30.411Z,1.08
2022-07-26T18:30:20.117Z,1.15
2022-07-26T18:33:11.261Z,0.90
2022-07-26T18:36:01.216Z,0.93
2022-07-26T18:38:54.018Z,0.70
2022-07-26T18:41:44.055Z,0.80
2022-07-26T18:44:31.847Z,1.00
2022-07-26T18:47:21.585Z,1.00
2022-07-26T18:50:15.270Z,0.88
2022-07-26T18:53:07.296Z,0.70
2022-07-26T18:55:59.253Z,1.10
2022-07-26T18:58:46.717Z,0.88
2022-07-26T19:01:38.675Z,0.82
2022-07-26T19:04:26.136Z,1.40
2022-07-26T19:07:13.494Z,1.30
2022-07-26T19:10:06.344Z,0.80
2022-07-26T19:12:56.176Z,1.15
2022-07-26T19:15:43.654Z,1.08
2022-07-26T19:18:39.937Z,1.10
2022-07-26T19:21:27.368Z,1.40
2022-07-26T19:24:14.875Z,2.70
2022-07-26T19:27:02.375Z,4.93
2022-07-26T19:29:51.148Z,4.47
2022-07-26T19:32:38.936Z,9.93
2022-07-26T19:35:26.631Z,16.63
2022-07-26T19:38:14.926Z,5.75
2022-07-26T19:41:02.153Z,2.55
2022-07-26T19:43:49.429Z,14.20
2022-07-26T19:46:36.657Z,5.10
2022-07-26T19:49:27.556Z,1.92
2022-07-26T19:52:15.037Z,1.20
2022-07-26T19:55:02.600Z,1.23
2022-07-26T19:57:51.022Z,1.17
2022-07-26T20:00:41.116Z,1.20
2022-07-26T20:03:32.458Z,1.00
2022-07-26T20:06:19.737Z,1.10
2022-07-26T20:09:09.718Z,0.98
2022-07-26T20:11:58.379Z,0.80
2022-07-26T20:14:45.920Z,1.02
2022-07-26T20:17:35.618Z,1.08
2022-07-26T20:20:23.103Z,1.10
2022-07-26T20:23:11.227Z,1.00
2022-07-26T20:25:59.953Z,1.60
2022-07-26T20:28:53.784Z,1.00
2022-07-26T20:31:41.378Z,1.10
2022-07-26T20:34:28.733Z,1.45
2022-07-26T20:37:16.522Z,1.10
2022-07-26T20:40:05.096Z,1.20
2022-07-26T20:42:56.266Z,1.08
2022-07-26T20:45:43.751Z,1.00
2022-07-26T20:48:31.896Z,1.30
2022-07-26T20:51:19.233Z,1.60
2022-07-26T20:54:10.337Z,1.13
2022-07-26T20:56:57.748Z,0.80
2022-07-26T20:59:44.961Z,1.08
2022-07-26T21:02:32.219Z,0.90
2022-07-26T21:05:52.640Z,1.15
2022-07-26T21:08:40.177Z,1.00
2022-07-26T21:11:27.486Z,0.98
2022-07-26T21:14:15.008Z,1.00
2022-07-26T21:17:11.583Z,1.00
2022-07-26T21:20:01.655Z,0.98
2022-07-26T21:22:49.487Z,1.33
2022-07-26T21:25:37.621Z,1.27
2022-07-26T21:28:27.868Z,1.30
2022-07-26T21:31:15.122Z,1.70
2022-07-26T21:34:10.541Z,1.33
2022-07-26T21:36:58.860Z,1.15
2022-07-26T21:39:46.084Z,1.58
2022-07-26T21:42:33.554Z,1.40
2022-07-26T21:45:23.268Z,1.23
2022-07-26T21:48:13.876Z,1.00
2022-07-26T21:51:05.926Z,1.40
2022-07-26T21:53:53.336Z,1.20
2022-07-26T21:56:40.913Z,1.30
2022-07-26T21:59:30.573Z,1.48
2022-07-26T22:02:21.735Z,0.77
2022-07-26T22:05:29.816Z,0.95
2022-07-26T22:08:19.816Z,1.25
2022-07-26T22:11:09.657Z,1.35
2022-07-26T22:13:59.795Z,1.10
2022-07-26T22:16:49.797Z,1.42
2022-07-26T22:19:37.141Z,1.10
2022-07-26T22:22:28.771Z,1.02
2022-07-26T22:25:16.359Z,1.00
2022-07-26T22:28:10.409Z,1.17
2022-07-26T22:30:58.195Z,1.55
2022-07-26T22:33:45.364Z,1.10
2022-07-26T22:36:35.057Z,1.13
2022-07-26T22:39:24.646Z,1.27
2022-07-26T22:42:18.967Z,1.20
2022-07-26T22:45:09.686Z,1.70
2022-07-26T22:48:03.656Z,1.35
2022-07-26T22:50:55.562Z,1.23
2022-07-26T22:53:42.724Z,1.13
2022-07-26T22:56:32.600Z,1.70
2022-07-26T22:59:22.804Z,1.67
2022-07-26T23:02:12.330Z,1.33
2022-07-26T23:05:01.754Z,1.20
2022-07-26T23:07:51.994Z,1.30
2022-07-26T23:10:39.133Z,1.33
2022-07-26T23:13:28.665Z,1.30
2022-07-26T23:16:15.927Z,1.38
2022-07-26T23:19:06.078Z,1.33
2022-07-26T23:21:55.330Z,1.30
2022-07-26T23:24:44.717Z,1.38
2022-07-26T23:27:31.982Z,1.15
2022-07-26T23:30:19.159Z,1.58
2022-07-26T23:33:06.345Z,1.23
2022-07-26T23:35:58.069Z,1.77
2022-07-26T23:38:47.870Z,1.10
2022-07-26T23:41:37.484Z,1.55
2022-07-26T23:44:26.707Z,1.58
2022-07-26T23:47:16.216Z,1.50
2022-07-26T23:50:06.270Z,1.67
2022-07-26T23:52:55.838Z,1.33
2022-07-26T23:55:42.955Z,1.52
2022-07-26T23:58:41.698Z,1.35
